Weather at Kumanovo Airfield

Public forecast

Using degrees Celsius for public forecast. Weather courtesy of forecast.io.

Closest aviation weather report (METAR) to Kumanovo Airfield

Closest report is Skopje International Airport, 12.3 nm (22.7 km) SSW.

2024/02/24 02:00 (retrieved 57 minutes ago)

LWSK 240200Z 16007KT 9999 BKN070 12/07 Q1013 NOSIG

Closest aviation forecast (TAF) to Kumanovo Airfield

Forecast is more than 12 hours old.

Closest forecast is Kuk√ęs International Airport, 57.6 nm (106.7 km) W.

2024/02/23 12:00 Ammendment (retrieved 15 hours ago)

TAF AMD LAKU 231500Z 2312/2412 CNL